Time;durP1;ratioP1;P1;durP2;ratioP2;P2;SDS_P1;SDS_P2;PMS_P1;PMS_P2;Temp;Humidity;BMP_temperature;BMP_pressure;BME280_temperature;BME280_humidity;BME280_pressure;Samples;Min_cycle;Max_cycle;Signal;HPM_P1;HPM_P2
2021/07/29 08:14:01;;;;;;;10.80;6.07;;;;;;;;;;5073983;27;20391;-90
2021/07/29 08:16:27;;;;;;;9.85;6.28;;;;;;;;;;5074310;28;20048;-89
2021/07/29 08:18:55;;;;;;;10.63;6.18;;;;;;;;;;5073969;28;20090;-88
2021/07/29 08:21:21;;;;;;;10.82;5.97;;;;;;;;;;5074783;28;20035;-92
2021/07/29 08:23:47;;;;;;;11.23;6.60;;;;;;;;;;5074731;28;20013;-92
2021/07/29 08:26:13;;;;;;;10.50;6.00;;;;;;;;;;5073824;28;20029;-91
2021/07/29 08:28:42;;;;;;;10.85;6.47;;;;;;;;;;5074120;28;20044;-90
2021/07/29 08:31:12;;;;;;;9.75;6.40;;;;;;;;;;5077866;28;20024;-88
2021/07/29 08:33:39;;;;;;;8.65;6.30;;;;;;;;;;5073673;28;20035;-90
2021/07/29 08:36:05;;;;;;;8.75;6.30;;;;;;;;;;5073705;28;20025;-89
2021/07/29 08:38:31;;;;;;;11.55;6.20;;;;;;;;;;5073710;28;20101;-89
2021/07/29 08:40:57;;;;;;;9.13;6.28;;;;;;;;;;5074485;28;20028;-89
2021/07/29 08:43:27;;;;;;;8.38;6.00;;;;;;;;;;5074544;28;20025;-88
2021/07/29 08:45:53;;;;;;;13.93;6.35;;;;;;;;;;5074002;28;20033;-86
2021/07/29 08:48:26;;;;;;;10.82;5.43;;;;;;;;;;5074381;28;20430;-87
2021/07/29 08:50:56;;;;;;;6.78;5.40;;;;;;;;;;5072589;28;21541;-87
2021/07/29 08:53:23;;;;;;;11.63;5.65;;;;;;;;;;5074276;28;20043;-87
2021/07/29 08:55:49;;;;;;;6.38;5.10;;;;;;;;;;5074243;28;20017;-84
2021/07/29 08:58:16;;;;;;;14.52;11.13;;;;;;;;;;5074093;28;20032;-83
2021/07/29 09:01:04;;;;;;;9.98;6.60;;;;;;;;;;5073794;28;20100;-84
2021/07/29 09:03:30;;;;;;;10.88;5.65;;;;;;;;;;5072501;28;20024;-83
2021/07/29 09:06:07;;;;;;;8.23;4.72;;;;;;;;;;5072511;28;20025;-85
2021/07/29 09:08:52;;;;;;;6.88;4.82;;;;;;;;;;5073801;28;20020;-84
2021/07/29 09:11:44;;;;;;;10.35;5.22;;;;;;;;;;5073432;28;20430;-84
2021/07/29 09:14:12;;;;;;;7.80;4.90;;;;;;;;;;5070926;28;20060;-84
2021/07/29 09:16:57;;;;;;;7.32;5.30;;;;;;;;;;5073490;28;20071;-84
2021/07/29 09:19:36;;;;;;;7.22;5.05;;;;;;;;;;5073467;28;20047;-84
2021/07/29 09:22:19;;;;;;;6.13;4.78;;;;;;;;;;5073232;28;20020;-84
2021/07/29 09:24:57;;;;;;;9.40;5.00;;;;;;;;;;5062499;28;20111;-84
2021/07/29 09:27:23;;;;;;;10.70;4.35;;;;;;;;;;5060140;28;20116;-84
2021/07/29 09:29:49;;;;;;;7.47;4.85;;;;;;;;;;5058969;28;20035;-84
2021/07/29 09:32:21;;;;;;;7.68;4.82;;;;;;;;;;5059808;28;20017;-84
2021/07/29 09:34:51;;;;;;;6.70;4.75;;;;;;;;;;5058980;28;20025;-84
2021/07/29 09:37:19;;;;;;;7.82;4.47;;;;;;;;;;5059943;28;20044;-84
2021/07/29 09:39:45;;;;;;;6.72;4.63;;;;;;;;;;5058870;28;20319;-84
2021/07/29 09:42:19;;;;;;;8.43;4.63;;;;;;;;;;5058769;28;20056;-84
2021/07/29 09:44:46;;;;;;;7.32;4.50;;;;;;;;;;5059712;28;20456;-84
2021/07/29 09:47:12;;;;;;;6.18;4.60;;;;;;;;;;5059266;28;20033;-84
2021/07/29 09:49:39;;;;;;;6.93;4.47;;;;;;;;;;5059809;28;20100;-85
2021/07/29 09:52:05;;;;;;;9.77;5.07;;;;;;;;;;5059678;28;20427;-84
2021/07/29 09:54:34;;;;;;;10.82;5.88;;;;;;;;;;5059808;28;20028;-85
2021/07/29 09:57:00;;;;;;;9.57;5.32;;;;;;;;;;5058803;28;20135;-85
2021/07/29 09:59:26;;;;;;;10.27;5.47;;;;;;;;;;5059520;28;20403;-85
2021/07/29 10:01:52;;;;;;;9.02;5.40;;;;;;;;;;5059470;28;20059;-84
2021/07/29 10:04:26;;;;;;;8.45;5.28;;;;;;;;;;5059325;28;20059;-84
2021/07/29 10:06:54;;;;;;;9.00;5.20;;;;;;;;;;5059333;28;20025;-84
2021/07/29 10:09:22;;;;;;;8.07;5.65;;;;;;;;;;5059753;28;20453;-86
2021/07/29 10:11:50;;;;;;;7.20;5.50;;;;;;;;;;5058442;28;20116;-88
2021/07/29 10:14:35;;;;;;;9.50;5.57;;;;;;;;;;5059057;28;20029;-88
2021/07/29 10:17:01;;;;;;;8.35;6.05;;;;;;;;;;5059276;28;20021;-88
2021/07/29 10:19:27;;;;;;;6.95;5.55;;;;;;;;;;5058733;28;20025;-88
2021/07/29 10:21:53;;;;;;;7.30;5.70;;;;;;;;;;5059492;28;20305;-87
2021/07/29 10:24:19;;;;;;;9.88;5.63;;;;;;;;;;5059334;28;20350;-88
2021/07/29 10:27:01;;;;;;;8.20;5.07;;;;;;;;;;5059303;28;20363;-88
2021/07/29 10:29:29;;;;;;;8.30;5.13;;;;;;;;;;5059141;28;20029;-88
2021/07/29 10:32:02;;;;;;;10.18;4.95;;;;;;;;;;5059280;28;20036;-88
2021/07/29 10:34:28;;;;;;;10.88;4.97;;;;;;;;;;5058437;28;20072;-88
2021/07/29 10:36:55;;;;;;;10.90;5.13;;;;;;;;;;5057469;28;20430;-88
2021/07/29 10:39:21;;;;;;;9.25;5.18;;;;;;;;;;5059142;28;20028;-88
2021/07/29 10:41:49;;;;;;;11.27;5.05;;;;;;;;;;5058320;28;20139;-88
2021/07/29 10:44:35;;;;;;;8.07;5.30;;;;;;;;;;5059051;28;20037;-89
2021/07/29 10:47:02;;;;;;;9.20;5.07;;;;;;;;;;5057144;28;20067;-89
2021/07/29 10:49:46;;;;;;;9.73;5.88;;;;;;;;;;5057128;28;20116;-88
2021/07/29 10:52:15;;;;;;;6.30;4.70;;;;;;;;;;5056872;28;20427;-88
2021/07/29 10:54:42;;;;;;;11.05;5.03;;;;;;;;;;5057196;28;20074;-89
2021/07/29 10:57:09;;;;;;;8.00;4.60;;;;;;;;;;5040152;28;20033;-91
2021/07/29 10:59:35;;;;;;;9.20;4.72;;;;;;;;;;5057083;28;20025;-88
2021/07/29 11:02:09;;;;;;;10.38;4.30;;;;;;;;;;5056908;28;20032;-92
2021/07/29 11:04:53;;;;;;;7.55;4.57;;;;;;;;;;5056952;28;20048;-89
2021/07/29 11:07:20;;;;;;;8.85;4.07;;;;;;;;;;5040459;28;20025;-83
2021/07/29 11:09:46;;;;;;;5.95;3.75;;;;;;;;;;5040007;28;20033;-89
2021/07/29 11:12:16;;;;;;;6.57;3.95;;;;;;;;;;5056400;28;20055;-84
2021/07/29 11:14:43;;;;;;;6.63;3.90;;;;;;;;;;5040166;28;20496;-93
2021/07/29 11:17:09;;;;;;;5.78;3.70;;;;;;;;;;5039931;28;20029;-95
2021/07/29 11:19:50;;;;;;;7.10;4.43;;;;;;;;;;5039880;28;20032;-93
2021/07/29 11:22:16;;;;;;;;;;;;;;;;;;5056766;28;20029;-93
2021/07/29 11:24:42;;;;;;;10.15;3.90;;;;;;;;;;5051909;28;19905;-93
2021/07/29 11:27:13;;;;;;;6.88;3.75;;;;;;;;;;5057417;28;20116;-93
2021/07/29 11:29:55;;;;;;;7.03;3.70;;;;;;;;;;5058109;28;20025;-92
2021/07/29 11:32:21;;;;;;;4.78;3.33;;;;;;;;;;5056986;28;20045;-92
2021/07/29 11:34:55;;;;;;;7.20;3.47;;;;;;;;;;5057714;28;20029;-93
2021/07/29 11:37:21;;;;;;;6.30;3.05;;;;;;;;;;5057975;28;20036;-92
2021/07/29 11:39:47;;;;;;;7.00;3.22;;;;;;;;;;5056943;28;20071;-89
2021/07/29 11:42:13;;;;;;;5.95;3.22;;;;;;;;;;5056947;28;20075;-89
2021/07/29 11:44:43;;;;;;;4.47;2.80;;;;;;;;;;5057324;28;20055;-89
2021/07/29 11:47:10;;;;;;;6.28;3.63;;;;;;;;;;5057803;28;20033;-89
2021/07/29 11:49:47;;;;;;;5.13;2.88;;;;;;;;;;5057961;28;20024;-90
2021/07/29 11:52:13;;;;;;;6.72;3.13;;;;;;;;;;5057616;28;20031;-89
2021/07/29 11:54:39;;;;;;;3.58;2.55;;;;;;;;;;5057776;28;20055;-89
2021/07/29 11:57:05;;;;;;;6.07;2.97;;;;;;;;;;5056834;28;20059;-89
2021/07/29 11:59:39;;;;;;;6.32;2.83;;;;;;;;;;5057894;28;20021;-89
2021/07/29 12:02:06;;;;;;;6.57;2.80;;;;;;;;;;5057905;28;20029;-89
2021/07/29 12:04:37;;;;;;;3.63;2.83;;;;;;;;;;5057861;28;20059;-89
2021/07/29 12:07:03;;;;;;;;;;;;;;;;;;5057815;28;20024;-89
2021/07/29 12:09:30;;;;;;;4.43;2.65;;;;;;;;;;5056738;28;19905;-88
2021/07/29 12:11:56;;;;;;;5.85;2.90;;;;;;;;;;5056983;28;20063;-87
2021/07/29 12:14:22;;;;;;;5.18;2.95;;;;;;;;;;5057405;28;20454;-87
2021/07/29 12:16:50;;;;;;;6.78;3.38;;;;;;;;;;5057424;28;20029;-87
2021/07/29 12:19:16;;;;;;;8.25;3.10;;;;;;;;;;5057630;28;20039;-87
2021/07/29 12:21:43;;;;;;;4.90;2.97;;;;;;;;;;5057477;28;20027;-87
2021/07/29 12:24:09;;;;;;;3.25;2.55;;;;;;;;;;5057406;28;20021;-87
2021/07/29 12:26:35;;;;;;;11.27;4.97;;;;;;;;;;5057231;28;20051;-87
2021/07/29 12:29:01;;;;;;;8.18;3.10;;;;;;;;;;5056459;28;20128;-87
2021/07/29 12:31:28;;;;;;;6.63;2.85;;;;;;;;;;5056643;28;20029;-87
2021/07/29 12:33:57;;;;;;;11.45;7.07;;;;;;;;;;5056958;28;20025;-87
2021/07/29 12:36:23;;;;;;;6.00;2.70;;;;;;;;;;5057146;28;20025;-87
2021/07/29 12:38:59;;;;;;;6.93;3.30;;;;;;;;;;5057183;28;20024;-86
2021/07/29 12:41:29;;;;;;;7.05;2.92;;;;;;;;;;5057199;28;20021;-88
2021/07/29 12:44:07;;;;;;;6.30;2.80;;;;;;;;;;5056528;28;20102;-87
2021/07/29 12:46:34;;;;;;;7.32;2.85;;;;;;;;;;5057208;28;20059;-87
2021/07/29 12:49:00;;;;;;;8.50;3.55;;;;;;;;;;5056891;28;20025;-95
2021/07/29 12:51:38;;;;;;;5.35;2.63;;;;;;;;;;5057275;28;20025;-94
2021/07/29 12:54:05;;;;;;;7.47;2.70;;;;;;;;;;5056164;28;20029;-93
2021/07/29 12:56:31;;;;;;;5.72;3.13;;;;;;;;;;5056787;28;20017;-92
2021/07/29 12:58:57;;;;;;;5.57;2.85;;;;;;;;;;5057841;28;20029;-92
2021/07/29 13:01:23;;;;;;;3.13;2.67;;;;;;;;;;5059833;28;20061;-91
2021/07/29 13:03:52;;;;;;;7.10;2.80;;;;;;;;;;5060943;28;20049;-92
2021/07/29 13:06:19;;;;;;;6.55;2.67;;;;;;;;;;5060862;28;20025;-92
2021/07/29 13:08:45;;;;;;;4.43;3.22;;;;;;;;;;5060760;28;20044;-92
2021/07/29 13:11:13;;;;;;;5.25;2.90;;;;;;;;;;5060680;28;20025;-91
2021/07/29 13:13:40;;;;;;;6.38;3.03;;;;;;;;;;5059386;28;20049;-93
2021/07/29 13:16:06;;;;;;;7.43;2.83;;;;;;;;;;5059629;28;20025;-92
2021/07/29 13:18:32;;;;;;;7.45;2.80;;;;;;;;;;5060328;28;20017;-92
2021/07/29 13:20:59;;;;;;;5.88;2.95;;;;;;;;;;5060671;28;20029;-91
2021/07/29 13:23:28;;;;;;;5.68;2.70;;;;;;;;;;5060402;28;20075;-91
2021/07/29 13:25:54;;;;;;;5.60;2.67;;;;;;;;;;5060563;28;20398;-92
2021/07/29 13:28:21;;;;;;;8.00;3.00;;;;;;;;;;5059606;28;20031;-92
2021/07/29 13:30:48;;;;;;;5.07;2.72;;;;;;;;;;5059460;28;20038;-91
2021/07/29 13:33:15;;;;;;;5.32;2.65;;;;;;;;;;5060300;28;20021;-92
2021/07/29 13:35:41;;;;;;;4.85;2.70;;;;;;;;;;5059355;28;20029;-92
2021/07/29 13:38:07;;;;;;;4.85;2.55;;;;;;;;;;5059475;28;20036;-91
2021/07/29 13:40:33;;;;;;;8.75;2.95;;;;;;;;;;5060294;28;20036;-92
2021/07/29 13:43:01;;;;;;;5.30;2.53;;;;;;;;;;5060368;28;20437;-91
2021/07/29 13:45:28;;;;;;;5.07;2.83;;;;;;;;;;5059052;28;20061;-93
2021/07/29 13:47:59;;;;;;;6.10;2.53;;;;;;;;;;5060076;28;20032;-92
2021/07/29 13:50:26;;;;;;;2.90;2.38;;;;;;;;;;5059404;28;20124;-92
2021/07/29 13:52:53;;;;;;;5.00;2.70;;;;;;;;;;5059832;28;20052;-92
2021/07/29 13:55:20;;;;;;;8.48;2.88;;;;;;;;;;5059708;28;20021;-93
2021/07/29 13:57:47;;;;;;;8.18;2.72;;;;;;;;;;5059540;28;20436;-92
2021/07/29 14:00:13;;;;;;;5.15;2.42;;;;;;;;;;5059584;28;20342;-92
2021/07/29 14:02:40;;;;;;;8.60;2.58;;;;;;;;;;5059672;28;20096;-92
2021/07/29 14:05:07;;;;;;;3.80;2.28;;;;;;;;;;5059710;28;20025;-91
2021/07/29 14:07:34;;;;;;;4.32;2.15;;;;;;;;;;5059535;28;20025;-92
2021/07/29 14:10:00;;;;;;;4.55;2.20;;;;;;;;;;5059712;28;20090;-92
2021/07/29 14:12:27;;;;;;;4.55;2.53;;;;;;;;;;5059371;28;20423;-92
2021/07/29 14:14:54;;;;;;;5.03;2.17;;;;;;;;;;5058476;28;20025;-92
2021/07/29 14:17:31;;;;;;;8.77;2.65;;;;;;;;;;5051069;28;20021;-92
2021/07/29 14:25:39;;;;;;;5.15;2.33;;;;;;;;;;5038179;28;20043;-91
2021/07/29 14:28:09;;;;;;;9.85;2.80;;;;;;;;;;5021243;28;20033;-91
2021/07/29 14:30:37;;;;;;;4.35;2.30;;;;;;;;;;5037621;28;20057;-93
2021/07/29 14:33:03;;;;;;;6.22;2.30;;;;;;;;;;5037424;28;20505;-92
2021/07/29 14:35:30;;;;;;;2.90;2.45;;;;;;;;;;5037530;28;20022;-92
2021/07/29 14:37:57;;;;;;;3.45;2.28;;;;;;;;;;5021030;28;20454;-92
2021/07/29 14:40:23;;;;;;;2.63;2.00;;;;;;;;;;5021162;28;20063;-92
2021/07/29 14:42:49;;;;;;;5.18;2.10;;;;;;;;;;5020961;28;20403;-92
2021/07/29 14:51:21;;;;;;;8.23;2.28;;;;;;;;;;5037798;28;20087;-91
2021/07/29 14:53:48;;;;;;;5.03;2.30;;;;;;;;;;5037160;28;20048;-92
2021/07/29 14:56:18;;;;;;;4.82;3.10;;;;;;;;;;5037333;28;20032;-92
2021/07/29 16:07:31;;;;;;;17.92;3.83;;;;;;;;;;5038200;28;20096;-91
2021/07/29 16:09:57;;;;;;;8.50;2.90;;;;;;;;;;5037216;28;20120;-91
2021/07/29 16:12:24;;;;;;;7.70;3.08;;;;;;;;;;5037474;28;20055;-91
2021/07/29 16:14:50;;;;;;;8.55;5.45;;;;;;;;;;5037597;28;20021;-92
2021/07/29 16:17:16;;;;;;;6.07;2.55;;;;;;;;;;5037640;28;20068;-90
2021/07/29 16:19:42;;;;;;;5.22;2.72;;;;;;;;;;5037629;28;20029;-92
2021/07/29 16:22:09;;;;;;;7.18;2.40;;;;;;;;;;5036474;28;20021;-91
2021/07/29 16:24:35;;;;;;;6.10;2.85;;;;;;;;;;5036840;28;20151;-91
2021/07/29 16:27:02;;;;;;;4.22;3.10;;;;;;;;;;5036591;28;20037;-91
2021/07/29 16:29:28;;;;;;;4.68;2.55;;;;;;;;;;5037478;28;20026;-91
2021/07/29 16:31:54;;;;;;;5.90;2.53;;;;;;;;;;5036410;28;20080;-91
2021/07/29 16:34:21;;;;;;;5.03;2.60;;;;;;;;;;5164639;22;20045;-96
2021/07/29 16:55:06;;;;;;;19.77;5.22;;;;;;;;;;5818498;22;20069;-96
2021/07/29 16:57:36;;;;;;;20.25;8.02;;;;;;;;;;5045987;28;20053;-95
2021/07/29 17:00:08;;;;;;;10.45;2.90;;;;;;;;;;5078211;28;20032;-95
2021/07/29 17:02:36;;;;;;;13.82;6.65;;;;;;;;;;5058088;28;20025;-95
2021/07/29 17:05:03;;;;;;;5.95;2.90;;;;;;;;;;5060158;28;20028;-95
2021/07/29 17:07:35;;;;;;;8.55;2.78;;;;;;;;;;5042543;28;20024;-96
2021/07/29 17:10:06;;;;;;;5.22;2.20;;;;;;;;;;5075670;28;20036;-96
2021/07/29 17:12:35;;;;;;;6.13;2.08;;;;;;;;;;5077497;28;20013;-96
2021/07/29 17:15:07;;;;;;;6.38;3.38;;;;;;;;;;5058196;28;20029;-96
2021/07/29 17:17:33;;;;;;;5.55;2.63;;;;;;;;;;5074702;28;20025;-95
2021/07/29 17:20:09;;;;;;;7.55;2.30;;;;;;;;;;5075702;28;20029;-95
2021/07/29 17:22:35;;;;;;;12.50;2.97;;;;;;;;;;5057317;28;20124;-94
2021/07/29 17:25:01;;;;;;;13.60;2.80;;;;;;;;;;5061282;28;20068;-92
2021/07/29 17:27:27;;;;;;;4.85;2.92;;;;;;;;;;5043407;28;20120;-92
2021/07/29 17:29:53;;;;;;;9.35;3.70;;;;;;;;;;5060764;28;20032;-94
2021/07/29 17:32:19;;;;;;;11.30;4.47;;;;;;;;;;5042552;28;20123;-94
2021/07/29 17:34:45;;;;;;;7.82;3.33;;;;;;;;;;5060086;28;20374;-93
2021/07/29 17:37:11;;;;;;;6.25;2.53;;;;;;;;;;5060181;28;20022;-95
2021/07/29 17:39:38;;;;;;;10.38;2.92;;;;;;;;;;5060120;28;20386;-94
2021/07/29 17:42:04;;;;;;;11.98;2.70;;;;;;;;;;5060025;28;20017;-93
2021/07/29 17:44:32;;;;;;;3.65;2.38;;;;;;;;;;5059561;28;20052;-95
2021/07/29 17:46:59;;;;;;;5.07;2.70;;;;;;;;;;5059761;28;20058;-94
2021/07/29 17:49:25;;;;;;;9.20;2.63;;;;;;;;;;5060358;28;20037;-94
2021/07/29 17:51:51;;;;;;;5.95;2.55;;;;;;;;;;5059926;28;20017;-94
2021/07/29 17:54:17;;;;;;;5.43;2.35;;;;;;;;;;5042101;28;20033;-94
2021/07/29 17:56:43;;;;;;;7.95;2.60;;;;;;;;;;5041964;28;20088;-94
2021/07/29 17:59:09;;;;;;;9.60;2.75;;;;;;;;;;5058933;28;20021;-94
2021/07/29 18:01:35;;;;;;;6.38;2.63;;;;;;;;;;5059600;28;20025;-94
2021/07/29 18:04:02;;;;;;;9.02;2.75;;;;;;;;;;5059730;28;20048;-95
2021/07/29 18:06:29;;;;;;;7.65;2.78;;;;;;;;;;5059606;28;20020;-94
2021/07/29 18:08:57;;;;;;;6.43;3.03;;;;;;;;;;5041572;28;20037;-95
2021/07/29 18:11:23;;;;;;;7.07;2.70;;;;;;;;;;5041632;28;20029;-94
2021/07/29 18:13:50;;;;;;;6.55;2.60;;;;;;;;;;5059716;28;20052;-94
2021/07/29 18:16:16;;;;;;;6.35;2.97;;;;;;;;;;5041330;28;20028;-93
2021/07/29 18:18:43;;;;;;;7.70;3.28;;;;;;;;;;5040937;28;20020;-94
2021/07/29 18:21:09;;;;;;;9.85;3.28;;;;;;;;;;5037800;28;20057;-93
2021/07/29 18:23:35;;;;;;;6.88;2.97;;;;;;;;;;5060093;28;20021;-94
2021/07/29 18:26:01;;;;;;;8.90;3.05;;;;;;;;;;5042926;28;20430;-93
2021/07/29 18:28:28;;;;;;;6.10;2.83;;;;;;;;;;5059172;28;20059;-96
2021/07/29 18:30:54;;;;;;;11.98;3.25;;;;;;;;;;5058866;28;20033;-94
2021/07/29 18:33:20;;;;;;;10.70;3.40;;;;;;;;;;5059048;28;20025;-95
2021/07/29 18:35:46;;;;;;;10.60;3.78;;;;;;;;;;5059252;28;20024;-95
2021/07/29 18:38:12;;;;;;;17.35;4.18;;;;;;;;;;5041059;28;20017;-94
2021/07/29 18:40:39;;;;;;;20.40;4.60;;;;;;;;;;5041538;28;20088;-94
2021/07/29 18:43:05;;;;;;;15.68;3.92;;;;;;;;;;5058615;28;20017;-94
2021/07/29 18:45:31;;;;;;;22.92;5.13;;;;;;;;;;5058963;28;20024;-89
2021/07/29 18:48:01;;;;;;;36.92;17.20;;;;;;;;;;5043009;28;20331;-92
2021/07/29 18:50:28;;;;;;;23.60;10.98;;;;;;;;;;5041254;28;20044;-86
2021/07/29 18:52:54;;;;;;;25.98;13.57;;;;;;;;;;5058595;28;20120;-88
2021/07/29 18:55:20;;;;;;;26.63;13.48;;;;;;;;;;5040761;28;20075;-87
2021/07/29 18:57:47;;;;;;;37.67;20.85;;;;;;;;;;5057116;28;20140;-90
2021/07/29 19:00:14;;;;;;;20.75;10.13;;;;;;;;;;5058418;28;20323;-85
2021/07/29 19:02:40;;;;;;;23.13;9.82;;;;;;;;;;5058472;28;20021;-87
2021/07/29 19:05:06;;;;;;;20.58;8.20;;;;;;;;;;5058468;28;20095;-88
2021/07/29 19:07:32;;;;;;;29.00;17.75;;;;;;;;;;5040972;28;20415;-90
2021/07/29 19:09:59;;;;;;;29.50;17.75;;;;;;;;;;5041036;28;20032;-88
2021/07/29 19:12:25;;;;;;;15.90;8.65;;;;;;;;;;5040758;28;20096;-87
2021/07/29 19:20:59;;;;;;;17.75;7.82;;;;;;;;;;5058388;28;20362;-87
2021/07/29 19:23:25;;;;;;;12.20;5.40;;;;;;;;;;5058003;28;20025;-88
2021/07/29 19:25:51;;;;;;;11.85;4.60;;;;;;;;;;5040362;28;20049;-87
2021/07/29 19:28:18;;;;;;;14.75;4.93;;;;;;;;;;5058330;28;20078;-86
2021/07/29 19:30:44;;;;;;;14.85;7.45;;;;;;;;;;5039904;28;20064;-87
2021/07/29 19:33:11;;;;;;;19.20;6.00;;;;;;;;;;5057944;28;20034;-89
2021/07/29 19:35:39;;;;;;;42.05;28.85;;;;;;;;;;5058174;28;20071;-87
2021/07/29 19:38:05;;;;;;;44.95;32.33;;;;;;;;;;5058188;28;20029;-87
2021/07/29 19:40:31;;;;;;;30.08;17.38;;;;;;;;;;5057505;28;20027;-84
2021/07/29 19:42:58;;;;;;;31.55;15.85;;;;;;;;;;5040094;28;20160;-87
2021/07/29 19:45:24;;;;;;;25.65;13.40;;;;;;;;;;5057881;28;20029;-88
2021/07/29 19:47:50;;;;;;;25.92;14.68;;;;;;;;;;5040037;28;20025;-88
2021/07/29 19:50:16;;;;;;;19.98;8.07;;;;;;;;;;5057571;28;20510;-89
2021/07/29 19:52:42;;;;;;;22.63;10.05;;;;;;;;;;5040092;28;20044;-91
2021/07/29 19:55:08;;;;;;;17.85;7.68;;;;;;;;;;5039890;28;20119;-91
2021/07/29 19:57:34;;;;;;;15.02;6.65;;;;;;;;;;5040327;28;20071;-86
2021/07/29 20:00:00;;;;;;;12.65;6.72;;;;;;;;;;5056822;28;20067;-87
2021/07/29 20:02:27;;;;;;;10.98;5.75;;;;;;;;;;5055751;28;20420;-86
2021/07/29 20:04:53;;;;;;;12.38;5.80;;;;;;;;;;5056990;28;20358;-88
2021/07/29 20:07:19;;;;;;;11.30;5.35;;;;;;;;;;5040238;28;20029;-88
2021/07/29 20:09:45;;;;;;;10.23;5.20;;;;;;;;;;5039888;28;20029;-87
2021/07/29 20:12:11;;;;;;;11.20;5.63;;;;;;;;;;5057481;28;20025;-89
2021/07/29 20:15:01;;;;;;;9.30;4.85;;;;;;;;;;5057808;28;20020;-88
2021/07/29 20:17:27;;;;;;;11.32;5.32;;;;;;;;;;5057485;28;20040;-89
2021/07/29 20:19:53;;;;;;;8.60;4.85;;;;;;;;;;5057326;28;20040;-89
2021/07/29 20:22:19;;;;;;;7.97;4.70;;;;;;;;;;5055174;28;20112;-88
2021/07/29 20:24:47;;;;;;;9.38;4.70;;;;;;;;;;5039675;28;20052;-88
2021/07/29 20:27:13;;;;;;;8.48;5.13;;;;;;;;;;5039009;28;20037;-77
2021/07/29 20:29:39;;;;;;;9.68;4.68;;;;;;;;;;5056534;28;20029;-75
2021/07/29 20:32:06;;;;;;;12.23;4.93;;;;;;;;;;5056257;28;20128;-75
2021/07/29 20:34:34;;;;;;;11.50;4.80;;;;;;;;;;5056781;28;20025;-75
2021/07/29 20:37:00;;;;;;;8.75;4.50;;;;;;;;;;5056895;28;20382;-75
2021/07/29 20:39:26;;;;;;;11.77;3.45;;;;;;;;;;5056296;28;20059;-75
2021/07/29 20:41:52;;;;;;;7.75;3.55;;;;;;;;;;5056590;28;20032;-75
2021/07/29 20:44:19;;;;;;;10.00;4.00;;;;;;;;;;5056691;28;20108;-75
2021/07/29 20:46:45;;;;;;;10.70;3.90;;;;;;;;;;5056355;28;20028;-75
2021/07/29 20:49:11;;;;;;;14.98;4.15;;;;;;;;;;5056724;28;20055;-76
2021/07/29 20:51:37;;;;;;;8.68;4.22;;;;;;;;;;5056132;28;20107;-76
2021/07/29 20:54:03;;;;;;;10.63;4.35;;;;;;;;;;5056059;28;20040;-75
2021/07/29 20:56:29;;;;;;;8.82;4.40;;;;;;;;;;5056324;28;20045;-75
2021/07/29 20:58:55;;;;;;;13.55;4.55;;;;;;;;;;5056123;28;20021;-75
2021/07/29 21:01:21;;;;;;;11.30;4.40;;;;;;;;;;5037387;28;20025;-75
2021/07/29 21:03:47;;;;;;;8.02;4.20;;;;;;;;;;5055438;28;20036;-75
2021/07/29 21:06:14;;;;;;;9.02;4.22;;;;;;;;;;5056292;28;20033;-75
2021/07/29 21:08:40;;;;;;;7.93;4.50;;;;;;;;;;5056186;28;20024;-75
2021/07/29 21:11:06;;;;;;;11.52;4.57;;;;;;;;;;5056048;28;20029;-76
2021/07/29 21:13:33;;;;;;;12.15;4.30;;;;;;;;;;5056023;28;20032;-75
2021/07/29 21:15:59;;;;;;;13.25;4.97;;;;;;;;;;5037827;28;20033;-76
2021/07/29 21:18:25;;;;;;;16.98;5.40;;;;;;;;;;5037975;28;20037;-75
2021/07/29 21:20:51;;;;;;;11.70;5.47;;;;;;;;;;5058285;28;20025;-75
2021/07/29 21:23:18;;;;;;;8.13;5.70;;;;;;;;;;5059404;28;20104;-75
2021/07/29 21:25:44;;;;;;;12.18;5.35;;;;;;;;;;5059445;28;20063;-77
2021/07/29 21:28:10;;;;;;;9.48;4.82;;;;;;;;;;5060007;28;20036;-81
2021/07/29 21:30:36;;;;;;;14.18;5.68;;;;;;;;;;5059320;28;20021;-80
2021/07/29 21:33:03;;;;;;;9.68;5.45;;;;;;;;;;5021994;28;20221;-81
2021/07/29 21:35:33;;;;;;;16.45;6.95;;;;;;;;;;5039294;28;20411;-80
2021/07/29 21:37:59;;;;;;;13.88;6.75;;;;;;;;;;5039509;28;20025;-80
2021/07/29 21:40:25;;;;;;;10.38;5.65;;;;;;;;;;5039660;28;20056;-80
2021/07/29 21:42:51;;;;;;;9.95;5.15;;;;;;;;;;5021939;28;20045;-79
2021/07/29 21:45:17;;;;;;;8.75;4.70;;;;;;;;;;5039431;28;20026;-80
2021/07/29 21:47:43;;;;;;;9.45;5.10;;;;;;;;;;5021729;28;20091;-80
2021/07/29 21:50:09;;;;;;;9.65;5.45;;;;;;;;;;5039346;28;20030;-78
2021/07/29 21:52:35;;;;;;;10.05;5.07;;;;;;;;;;5039331;28;20414;-78
2021/07/29 21:55:01;;;;;;;12.77;4.90;;;;;;;;;;5038985;28;20045;-78
2021/07/29 21:57:27;;;;;;;10.13;4.63;;;;;;;;;;5021643;28;20069;-78
2021/07/29 21:59:53;;;;;;;13.15;4.70;;;;;;;;;;5039406;28;20025;-78
2021/07/29 22:02:20;;;;;;;8.32;4.53;;;;;;;;;;5039127;28;20029;-78
2021/07/29 22:04:47;;;;;;;11.75;5.47;;;;;;;;;;5038997;28;20021;-78
2021/07/29 22:07:13;;;;;;;7.28;4.93;;;;;;;;;;5039217;28;20327;-78
2021/07/29 22:09:39;;;;;;;13.52;4.63;;;;;;;;;;5039021;28;20017;-78
2021/07/29 22:12:06;;;;;;;15.98;5.13;;;;;;;;;;5039033;28;20415;-78
2021/07/29 22:14:32;;;;;;;10.50;4.43;;;;;;;;;;5021427;28;20116;-77
2021/07/29 22:16:58;;;;;;;17.25;4.93;;;;;;;;;;5038862;28;20025;-78
2021/07/29 22:19:26;;;;;;;14.07;4.38;;;;;;;;;;5038836;28;20403;-78
2021/07/29 22:21:52;;;;;;;12.30;4.63;;;;;;;;;;5038769;28;20068;-78
2021/07/29 22:24:18;;;;;;;9.90;4.32;;;;;;;;;;5038421;28;20109;-78
2021/07/29 22:26:44;;;;;;;7.82;4.47;;;;;;;;;;5038680;28;20315;-79
2021/07/29 22:29:10;;;;;;;10.10;4.88;;;;;;;;;;5021176;28;20411;-78
2021/07/29 22:31:36;;;;;;;14.18;4.40;;;;;;;;;;5038549;28;20041;-78
2021/07/29 22:34:02;;;;;;;9.10;4.20;;;;;;;;;;5038548;28;20025;-78
2021/07/29 22:36:28;;;;;;;10.88;4.88;;;;;;;;;;5038736;28;20021;-78
2021/07/29 22:38:54;;;;;;;12.20;4.38;;;;;;;;;;5038585;28;20403;-78
2021/07/29 22:41:20;;;;;;;10.75;4.20;;;;;;;;;;5038302;28;20036;-78
2021/07/29 22:43:46;;;;;;;8.63;4.38;;;;;;;;;;5038508;28;20037;-78
2021/07/29 22:46:12;;;;;;;9.90;4.32;;;;;;;;;;5038208;28;20033;-78
2021/07/29 22:48:38;;;;;;;11.52;4.43;;;;;;;;;;5038308;28;20030;-78
2021/07/29 22:51:04;;;;;;;10.98;4.20;;;;;;;;;;5038290;28;20025;-78
2021/07/29 22:53:30;;;;;;;10.75;4.18;;;;;;;;;;5038051;28;20113;-78
2021/07/29 22:55:56;;;;;;;6.97;3.88;;;;;;;;;;5017153;28;20049;-78
2021/07/29 22:58:22;;;;;;;6.35;3.75;;;;;;;;;;5018217;28;20029;-78
2021/07/29 23:00:49;;;;;;;10.98;4.72;;;;;;;;;;5018210;28;20117;-78
2021/07/29 23:03:16;;;;;;;8.07;4.45;;;;;;;;;;5018185;28;20045;-78
2021/07/29 23:05:42;;;;;;;12.48;4.78;;;;;;;;;;5018386;28;20018;-78
2021/07/29 23:08:08;;;;;;;16.60;5.68;;;;;;;;;;5018089;28;20404;-78
2021/07/29 23:10:34;;;;;;;15.05;6.00;;;;;;;;;;5018028;28;20026;-78
2021/07/29 23:13:00;;;;;;;19.30;6.80;;;;;;;;;;5018003;28;20022;-78
2021/07/29 23:15:26;;;;;;;17.30;7.57;;;;;;;;;;5018106;28;20022;-78
2021/07/29 23:17:53;;;;;;;24.23;9.10;;;;;;;;;;5017984;28;20097;-78
2021/07/29 23:20:19;;;;;;;24.00;9.43;;;;;;;;;;5016776;28;20412;-78
2021/07/29 23:22:46;;;;;;;19.15;9.20;;;;;;;;;;5017929;28;20420;-78
2021/07/29 23:28:08;;;;;;;;;;;;;;;;;;5018306;28;20030;-78
2021/07/29 23:30:38;;;;;;;20.38;10.23;;;;;;;;;;5017680;28;19905;-78
2021/07/29 23:33:04;;;;;;;19.65;9.40;;;;;;;;;;5017769;28;20030;-78
2021/07/29 23:35:31;;;;;;;17.70;9.27;;;;;;;;;;5017883;28;20018;-78
2021/07/29 23:37:58;;;;;;;21.50;9.30;;;;;;;;;;5016542;28;20029;-78
2021/07/29 23:40:24;;;;;;;17.73;8.98;;;;;;;;;;5017503;28;20058;-78
2021/07/29 23:42:50;;;;;;;22.40;8.48;;;;;;;;;;5016147;28;20025;-78
2021/07/29 23:45:16;;;;;;;14.50;8.10;;;;;;;;;;5017336;28;20022;-78
2021/07/29 23:47:42;;;;;;;18.42;9.05;;;;;;;;;;5017272;28;20027;-78
2021/07/29 23:50:09;;;;;;;20.95;8.15;;;;;;;;;;5017734;28;20036;-78
2021/07/29 23:52:35;;;;;;;13.52;8.65;;;;;;;;;;5017512;28;20069;-79
2021/07/29 23:55:01;;;;;;;14.98;7.82;;;;;;;;;;5020586;28;20084;-78
2021/07/29 23:57:27;;;;;;;16.65;7.22;;;;;;;;;;5019521;28;20367;-78
2021/07/29 23:59:53;;;;;;;13.52;7.07;;;;;;;;;;5019591;28;20053;-78
